Time;durP1;ratioP1;P1;durP2;ratioP2;P2;SDS_P1;SDS_P2;PMS_P1;PMS_P2;Temp;Humidity;BMP_temperature;BMP_pressure;BME280_temperature;BME280_humidity;BME280_pressure;Samples;Min_cycle;Max_cycle;Signal;HPM_P1;HPM_P2
2022/09/03 00:01:27;;;;;;;2.30;1.77;;;19.40;99.90;;;;;;5095864;28;20616;-73
2022/09/03 00:04:02;;;;;;;2.57;1.97;;;19.40;99.90;;;;;;5096471;28;20574;-74
2022/09/03 00:06:44;;;;;;;2.60;1.83;;;19.40;99.90;;;;;;5096184;28;20581;-74
2022/09/03 00:09:18;;;;;;;3.77;1.93;;;19.40;99.90;;;;;;5095269;28;20617;-74
2022/09/03 00:11:49;;;;;;;1.80;1.50;;;19.40;99.90;;;;;;5077533;28;20966;-74
2022/09/03 00:14:25;;;;;;;1.90;1.80;;;19.50;99.90;;;;;;5094997;28;20679;-73
2022/09/03 00:16:53;;;;;;;2.03;1.93;;;19.40;99.90;;;;;;5095377;28;20625;-73
2022/09/03 00:19:35;;;;;;;2.80;1.70;;;19.30;99.90;;;;;;5095428;28;20582;-73
2022/09/03 00:22:12;;;;;;;1.87;1.50;;;19.20;99.90;;;;;;5095213;28;20940;-73
2022/09/03 00:24:41;;;;;;;2.83;2.30;;;19.10;99.90;;;;;;5095492;28;21235;-75
2022/09/03 00:27:15;;;;;;;2.17;2.07;;;19.10;99.90;;;;;;5094966;28;20621;-73
2022/09/03 00:29:53;;;;;;;1.80;1.70;;;19.10;99.90;;;;;;5095330;28;20566;-73
2022/09/03 00:32:26;;;;;;;3.50;2.43;;;19.10;99.90;;;;;;5094896;28;20588;-73
2022/09/03 00:35:04;;;;;;;3.00;1.73;;;19.10;99.90;;;;;;5095156;28;20582;-73
2022/09/03 00:37:33;;;;;;;2.73;2.30;;;19.00;99.90;;;;;;5095136;28;21221;-73
2022/09/03 00:40:01;;;;;;;2.23;2.00;;;19.00;99.90;;;;;;5094946;28;20623;-73
2022/09/03 00:42:42;;;;;;;3.03;2.83;;;18.90;99.90;;;;;;5093304;28;20666;-73
2022/09/03 00:45:21;;;;;;;6.03;2.40;;;18.80;99.90;;;;;;5094225;28;20620;-74
2022/09/03 00:48:22;;;;;;;1.90;1.80;;;18.80;99.90;;;;;;5095162;28;20645;-73
2022/09/03 00:51:12;;;;;;;1.97;1.87;;;18.70;99.90;;;;;;5094692;28;20585;-74
2022/09/03 00:53:54;;;;;;;4.00;1.77;;;18.70;99.90;;;;;;5094264;28;20947;-73
2022/09/03 00:57:13;;;;;;;2.70;2.47;;;18.70;99.90;;;;;;5094676;28;20632;-73
2022/09/03 00:59:46;;;;;;;6.00;1.90;;;18.60;99.90;;;;;;5044007;28;20625;-73
2022/09/03 01:02:27;;;;;;;7.13;2.10;;;18.60;99.90;;;;;;5094434;28;20578;-72
2022/09/03 01:05:21;;;;;;;5.50;2.00;;;18.70;99.90;;;;;;5094127;28;20640;-73
2022/09/03 01:08:17;;;;;;;3.53;1.83;;;18.70;99.90;;;;;;5093793;28;20632;-73
2022/09/03 01:11:01;;;;;;;2.43;2.30;;;18.60;99.90;;;;;;5093762;28;20644;-73
2022/09/03 01:13:41;;;;;;;2.23;2.00;;;18.60;99.90;;;;;;5094347;28;21110;-73
2022/09/03 01:16:43;;;;;;;2.77;2.57;;;18.50;99.90;;;;;;5094256;28;20637;-73
2022/09/03 01:19:37;;;;;;;1.80;1.70;;;18.50;99.90;;;;;;5094093;28;20573;-73
2022/09/03 01:22:19;;;;;;;1.80;1.70;;;18.50;99.90;;;;;;5094374;28;20631;-72
2022/09/03 01:25:09;;;;;;;5.60;1.90;;;18.40;99.90;;;;;;5075643;28;20643;-73
2022/09/03 01:28:12;;;;;;;2.93;2.00;;;18.30;99.90;;;;;;5094190;28;20581;-73
2022/09/03 01:30:47;;;;;;;1.93;1.83;;;18.20;99.90;;;;;;5093610;28;20967;-74
2022/09/03 01:33:14;;;;;;;2.10;2.00;;;18.30;99.90;;;;;;5093952;28;20692;-73
2022/09/03 01:35:48;;;;;;;2.17;2.07;;;18.20;99.90;;;;;;5093657;28;20542;-73
2022/09/03 01:38:33;;;;;;;4.20;1.97;;;18.30;99.90;;;;;;5094011;28;20569;-72
2022/09/03 01:44:39;;;;;;;2.37;2.17;;;18.20;99.90;;;;;;5093793;28;21123;-72
2022/09/03 01:47:29;;;;;;;3.17;2.60;;;18.20;99.90;;;;;;5093735;28;20586;-73
2022/09/03 01:50:05;;;;;;;4.80;2.27;;;18.10;99.90;;;;;;5073213;28;20618;-73
2022/09/03 01:52:57;;;;;;;2.87;2.60;;;18.10;99.90;;;;;;5073174;28;21161;-73
2022/09/03 01:55:47;;;;;;;2.30;2.10;;;18.10;99.90;;;;;;5073357;28;21139;-73
2022/09/03 01:58:32;;;;;;;2.40;2.30;;;18.10;99.90;;;;;;5072952;28;20958;-73
2022/09/03 02:01:08;;;;;;;2.40;2.30;;;18.00;99.90;;;;;;5072947;28;20953;-73
2022/09/03 02:03:39;;;;;;;2.17;2.00;;;18.10;99.90;;;;;;5055420;28;21078;-73
2022/09/03 02:06:07;;;;;;;2.33;2.17;;;18.20;99.90;;;;;;5072747;28;20634;-73
2022/09/03 02:08:34;;;;;;;5.73;2.50;;;18.00;99.90;;;;;;5073687;28;20703;-73
2022/09/03 02:11:05;;;;;;;2.60;1.83;;;17.90;99.90;;;;;;5072023;28;20630;-73
2022/09/03 02:13:41;;;;;;;4.50;2.03;;;17.80;99.90;;;;;;5073693;28;20608;-73
2022/09/03 02:16:16;;;;;;;2.20;2.10;;;17.80;99.90;;;;;;5073705;28;20607;-73
2022/09/03 02:18:47;;;;;;;2.50;1.80;;;17.70;99.90;;;;;;5073306;28;20594;-73
2022/09/03 02:21:19;;;;;;;2.50;2.20;;;17.70;99.90;;;;;;5073626;28;20578;-73
2022/09/03 02:23:47;;;;;;;2.23;2.07;;;17.80;99.90;;;;;;5073852;28;20699;-73
2022/09/03 02:26:18;;;;;;;1.90;1.80;;;17.80;99.90;;;;;;5073996;28;20922;-72
2022/09/03 02:28:44;;;;;;;4.57;2.30;;;17.90;99.90;;;;;;5073492;28;20823;-72
2022/09/03 02:31:11;;;;;;;2.77;2.00;;;17.90;99.90;;;;;;5054950;28;20618;-72
2022/09/03 02:33:41;;;;;;;5.23;2.07;;;17.90;99.90;;;;;;5073412;28;20629;-72
2022/09/03 02:36:10;;;;;;;2.20;2.00;;;18.00;99.90;;;;;;5073413;28;20999;-73
2022/09/03 02:38:37;;;;;;;2.60;2.40;;;18.00;99.90;;;;;;5073078;28;20573;-73
2022/09/03 02:41:04;;;;;;;2.67;2.27;;;18.10;99.90;;;;;;5072893;28;20590;-73
2022/09/03 02:43:41;;;;;;;2.53;2.33;;;18.00;99.90;;;;;;5073406;28;20610;-73
2022/09/03 02:46:13;;;;;;;2.40;2.20;;;18.00;99.90;;;;;;5055150;28;20953;-73
2022/09/03 02:48:39;;;;;;;3.10;2.10;;;18.10;99.90;;;;;;5084939;28;20649;-73
2022/09/03 02:51:06;;;;;;;2.77;2.00;;;18.20;99.90;;;;;;5093370;28;20935;-73
2022/09/03 02:53:32;;;;;;;6.97;2.30;;;18.20;99.90;;;;;;5075412;28;20641;-73
2022/09/03 02:56:00;;;;;;;5.17;2.27;;;18.10;99.90;;;;;;5093086;28;21158;-73
2022/09/03 02:58:27;;;;;;;3.00;2.63;;;18.10;99.90;;;;;;5093201;28;20944;-73
2022/09/03 03:00:53;;;;;;;4.60;4.20;;;18.20;99.90;;;;;;5093655;28;20650;-73
2022/09/03 03:03:20;;;;;;;2.20;2.00;;;18.10;99.90;;;;;;5093317;28;20573;-73
2022/09/03 03:05:49;;;;;;;1.90;1.80;;;18.10;99.90;;;;;;5093653;28;20658;-73
2022/09/03 03:08:20;;;;;;;2.40;2.30;;;18.00;99.90;;;;;;5092860;28;20632;-73
2022/09/03 03:10:48;;;;;;;4.67;2.60;;;17.90;99.90;;;;;;5078521;28;20624;-73
2022/09/03 03:13:15;;;;;;;5.47;2.23;;;17.90;99.90;;;;;;5096598;28;20810;-73
2022/09/03 03:15:42;;;;;;;2.20;2.10;;;17.80;99.90;;;;;;5096318;28;20719;-72
2022/09/03 03:18:10;;;;;;;2.53;2.10;;;17.70;99.90;;;;;;5095822;28;21227;-72
2022/09/03 03:20:37;;;;;;;2.60;2.10;;;17.70;99.90;;;;;;5094736;28;20620;-73
2022/09/03 03:23:05;;;;;;;2.37;2.00;;;17.70;99.90;;;;;;5096281;28;20621;-73
2022/09/03 03:25:35;;;;;;;2.43;2.23;;;17.80;99.90;;;;;;5095756;28;20648;-73
2022/09/03 03:28:03;;;;;;;3.90;2.30;;;17.80;99.90;;;;;;5096277;28;20582;-73
2022/09/03 03:30:31;;;;;;;1.90;1.80;;;17.80;99.90;;;;;;5095879;28;20625;-73
2022/09/03 03:32:58;;;;;;;3.67;2.37;;;17.80;99.90;;;;;;5096720;28;20577;-73
2022/09/03 03:35:24;;;;;;;2.50;2.30;;;17.90;99.90;;;;;;5096265;28;20943;-73
2022/09/03 03:37:51;;;;;;;2.83;2.63;;;17.90;99.90;;;;;;5096106;28;20609;-73
2022/09/03 03:40:19;;;;;;;3.30;2.20;;;17.80;99.90;;;;;;5096232;28;20565;-73
2022/09/03 03:42:45;;;;;;;2.57;2.37;;;17.80;99.90;;;;;;5096182;28;20596;-73
2022/09/03 03:45:12;;;;;;;4.90;2.10;;;17.80;99.90;;;;;;5095848;28;20942;-73
2022/09/03 03:47:38;;;;;;;2.33;2.20;;;17.80;99.90;;;;;;5096039;28;20649;-73
2022/09/03 03:50:05;;;;;;;5.90;2.50;;;17.80;99.90;;;;;;5096710;28;20591;-73
2022/09/03 03:52:32;;;;;;;1.80;1.70;;;17.80;99.90;;;;;;5095752;28;20604;-73
2022/09/03 03:54:58;;;;;;;2.60;2.50;;;17.80;99.90;;;;;;5096053;28;21196;-73
2022/09/03 03:57:28;;;;;;;2.67;2.47;;;17.80;99.90;;;;;;5095863;28;20664;-73
2022/09/03 03:59:55;;;;;;;2.60;2.40;;;17.70;99.90;;;;;;5096337;28;20586;-73
2022/09/03 04:02:21;;;;;;;2.77;2.50;;;17.70;99.90;;;;;;5096518;28;20602;-73
2022/09/03 04:04:47;;;;;;;3.17;2.80;;;17.60;99.90;;;;;;5095816;28;20590;-73
2022/09/03 04:07:14;;;;;;;2.50;2.30;;;17.60;99.90;;;;;;5095451;28;20558;-73
2022/09/03 04:09:40;;;;;;;3.60;2.73;;;17.50;99.90;;;;;;5095813;28;20606;-73
2022/09/03 04:12:07;;;;;;;3.27;2.97;;;17.50;99.90;;;;;;5096325;28;20906;-74
2022/09/03 04:14:34;;;;;;;5.40;2.60;;;17.40;99.90;;;;;;5096290;28;20600;-74
2022/09/03 04:17:01;;;;;;;3.70;2.57;;;17.30;99.90;;;;;;5095190;28;20680;-73
2022/09/03 04:19:31;;;;;;;2.30;2.17;;;17.30;99.90;;;;;;5095719;28;20604;-74
2022/09/03 04:21:58;;;;;;;3.07;2.77;;;17.30;99.90;;;;;;5094504;28;20588;-74
2022/09/03 04:24:24;;;;;;;2.57;2.43;;;17.40;99.90;;;;;;5095544;28;20649;-74
2022/09/03 04:26:52;;;;;;;2.87;2.67;;;17.40;99.90;;;;;;5095337;28;20589;-74
2022/09/03 04:29:20;;;;;;;2.37;2.17;;;17.50;99.90;;;;;;5094604;28;20603;-74
2022/09/03 04:34:32;;;;;;;7.63;3.23;;;17.60;99.90;;;;;;5095227;28;20580;-74
2022/09/03 04:36:58;;;;;;;3.33;3.03;;;17.50;99.90;;;;;;5095151;28;20653;-74
2022/09/03 04:39:25;;;;;;;5.00;3.30;;;17.50;99.90;;;;;;5094956;28;20614;-74
2022/09/03 04:41:52;;;;;;;6.20;3.60;;;17.40;99.90;;;;;;5094883;28;20621;-74
2022/09/03 04:44:18;;;;;;;3.57;3.33;;;17.30;99.90;;;;;;5077210;28;20620;-74
2022/09/03 04:46:46;;;;;;;4.00;3.70;;;17.40;99.90;;;;;;5094801;28;20666;-74
2022/09/03 04:49:13;;;;;;;4.40;4.00;;;17.30;99.90;;;;;;5094731;28;21229;-74
2022/09/03 04:51:40;;;;;;;7.70;3.33;;;17.30;99.90;;;;;;5094988;28;20955;-73
2022/09/03 04:54:08;;;;;;;4.47;4.17;;;17.20;99.90;;;;;;5094567;28;20575;-74
2022/09/03 04:56:35;;;;;;;3.03;2.83;;;17.10;99.90;;;;;;5076726;28;20673;-74
2022/09/03 04:59:07;;;;;;;3.50;3.30;;;17.10;99.90;;;;;;5093851;28;20618;-74
2022/09/03 05:01:36;;;;;;;4.17;3.37;;;17.00;99.90;;;;;;5094945;28;20642;-73
2022/09/03 05:04:04;;;;;;;4.47;4.07;;;17.00;99.90;;;;;;5094364;28;20618;-73
2022/09/03 05:06:31;;;;;;;3.37;3.07;;;16.90;99.90;;;;;;5094811;28;20964;-73
2022/09/03 05:08:59;;;;;;;3.63;3.43;;;17.00;99.90;;;;;;5093609;28;20617;-73
2022/09/03 05:11:27;;;;;;;4.23;3.80;;;17.10;99.90;;;;;;5094361;28;20566;-73
2022/09/03 05:13:56;;;;;;;3.93;3.63;;;17.10;99.90;;;;;;5094782;28;20605;-74
2022/09/03 05:16:24;;;;;;;21.83;4.20;;;17.10;99.90;;;;;;5094115;28;21069;-73
2022/09/03 05:18:53;;;;;;;3.70;3.40;;;17.00;99.90;;;;;;5093991;28;20568;-74
2022/09/03 05:21:20;;;;;;;4.53;3.33;;;17.00;99.90;;;;;;5094632;28;20627;-74
2022/09/03 05:23:49;;;;;;;4.37;4.00;;;17.00;99.90;;;;;;5093946;28;20698;-73
2022/09/03 05:26:21;;;;;;;5.03;3.90;;;16.90;99.90;;;;;;5094256;28;20617;-73
2022/09/03 05:28:51;;;;;;;4.10;3.60;;;16.80;99.90;;;;;;5093707;28;20592;-74
2022/09/03 05:31:19;;;;;;;3.90;3.60;;;16.50;99.90;;;;;;5094308;28;20577;-74
2022/09/03 05:33:51;;;;;;;6.40;3.87;;;16.50;99.90;;;;;;5076299;28;21146;-74
2022/09/03 05:36:23;;;;;;;5.90;4.00;;;16.60;99.90;;;;;;5093869;28;20628;-74
2022/09/03 05:38:50;;;;;;;4.40;4.00;;;16.60;99.90;;;;;;5093954;28;20577;-73
2022/09/03 05:41:17;;;;;;;4.13;3.73;;;16.50;99.90;;;;;;5094033;28;20613;-73
2022/09/03 05:43:43;;;;;;;4.27;3.87;;;16.60;99.90;;;;;;5094006;28;20581;-73
2022/09/03 05:46:17;;;;;;;4.43;3.97;;;16.50;99.90;;;;;;5094296;28;20540;-73
2022/09/03 05:48:46;;;;;;;4.00;3.60;;;16.60;99.90;;;;;;5093984;28;20647;-73
2022/09/03 05:51:15;;;;;;;4.13;3.90;;;16.60;99.90;;;;;;5076540;28;20968;-74
2022/09/03 05:53:43;;;;;;;4.20;4.00;;;16.70;99.90;;;;;;5094331;28;21022;-74
2022/09/03 05:56:18;;;;;;;5.13;4.60;;;16.80;99.90;;;;;;5094153;28;20626;-73
2022/09/03 05:58:47;;;;;;;3.83;3.53;;;16.70;99.90;;;;;;5094951;28;20652;-74
2022/09/03 06:01:31;;;;;;;4.73;4.43;;;16.70;99.90;;;;;;5094267;28;20540;-74
2022/09/03 06:04:09;;;;;;;5.10;4.53;;;16.60;99.90;;;;;;5093505;28;20627;-74
2022/09/03 06:06:38;;;;;;;7.17;6.47;;;16.50;99.90;;;;;;5094169;28;20560;-74
2022/09/03 06:09:10;;;;;;;4.60;4.30;;;16.50;99.90;;;;;;5094751;28;20568;-73
2022/09/03 06:11:38;;;;;;;6.73;5.10;;;16.50;99.90;;;;;;5093477;28;20556;-73
2022/09/03 06:14:10;;;;;;;5.80;5.33;;;16.50;99.90;;;;;;5093841;28;20636;-74
2022/09/03 06:16:39;;;;;;;6.40;5.87;;;16.50;99.90;;;;;;5075204;28;20595;-73
2022/09/03 06:19:08;;;;;;;7.70;6.20;;;16.40;99.90;;;;;;5075467;28;20632;-74
2022/09/03 06:21:36;;;;;;;12.93;6.90;;;16.40;99.90;;;;;;5093763;28;20585;-74
2022/09/03 06:24:02;;;;;;;7.73;6.97;;;16.40;99.90;;;;;;5093700;28;20640;-74
2022/09/03 06:26:29;;;;;;;6.83;6.20;;;16.20;99.90;;;;;;5092241;28;20610;-74
2022/09/03 06:28:56;;;;;;;9.00;8.10;;;16.20;99.90;;;;;;5094014;28;20624;-74
2022/09/03 06:31:23;;;;;;;8.33;7.40;;;16.40;99.90;;;;;;5093758;28;20544;-73
2022/09/03 06:33:52;;;;;;;7.23;6.63;;;16.50;99.90;;;;;;5093911;28;20630;-74
2022/09/03 06:36:21;;;;;;;8.67;7.03;;;16.50;99.90;;;;;;5075082;28;20595;-74
2022/09/03 06:38:54;;;;;;;10.10;7.80;;;16.50;99.90;;;;;;5093220;28;21012;-74
2022/09/03 06:41:30;;;;;;;7.73;7.03;;;16.30;99.90;;;;;;5093583;28;20569;-74
2022/09/03 06:44:01;;;;;;;7.93;6.50;;;16.10;99.90;;;;;;5093127;28;20612;-73
2022/09/03 06:46:41;;;;;;;6.87;6.37;;;15.90;99.90;;;;;;5096547;28;20970;-73
2022/09/03 06:49:07;;;;;;;10.13;7.80;;;15.80;99.90;;;;;;5096301;28;20656;-73
2022/09/03 06:51:36;;;;;;;7.60;7.00;;;15.80;99.90;;;;;;5078940;28;21004;-73
2022/09/03 06:54:09;;;;;;;7.57;6.30;;;15.60;99.90;;;;;;5096320;28;21026;-73
2022/09/03 06:56:37;;;;;;;8.00;7.40;;;15.80;99.90;;;;;;5096498;28;20621;-74
2022/09/03 06:59:14;;;;;;;12.20;6.67;;;15.80;99.90;;;;;;5097361;28;20572;-74
2022/09/03 07:01:42;;;;;;;8.30;7.50;;;15.60;99.90;;;;;;5095910;28;20601;-74
2022/09/03 07:04:10;;;;;;;8.17;7.37;;;15.50;99.90;;;;;;5097419;28;20577;-73
2022/09/03 07:06:39;;;;;;;9.77;7.80;;;15.50;99.90;;;;;;5097179;28;20569;-73
2022/09/03 07:09:07;;;;;;;7.80;7.10;;;15.70;99.90;;;;;;5096944;28;20625;-74
2022/09/03 07:11:35;;;;;;;7.97;7.27;;;15.70;99.90;;;;;;5078726;28;20613;-74
2022/09/03 07:14:03;;;;;;;7.60;6.80;;;15.80;99.90;;;;;;5097554;28;20570;-74
2022/09/03 07:16:33;;;;;;;8.90;6.40;;;15.90;99.90;;;;;;5096827;28;20617;-74
2022/09/03 07:19:02;;;;;;;7.07;6.47;;;15.80;99.90;;;;;;5097100;28;21183;-73
2022/09/03 07:21:32;;;;;;;7.97;6.37;;;15.80;99.90;;;;;;5096694;28;20613;-73
2022/09/03 07:23:59;;;;;;;7.20;6.63;;;15.80;99.90;;;;;;5096223;28;20620;-73
2022/09/03 07:26:29;;;;;;;6.40;6.00;;;15.70;99.90;;;;;;5096774;28;20580;-73
2022/09/03 07:28:56;;;;;;;7.27;6.50;;;15.80;99.90;;;;;;5096832;28;20560;-73
2022/09/03 07:31:28;;;;;;;7.00;6.50;;;15.90;99.90;;;;;;5096684;28;20544;-73
2022/09/03 07:33:56;;;;;;;6.87;6.37;;;15.80;99.90;;;;;;5096489;28;20636;-73
2022/09/03 07:36:25;;;;;;;7.60;6.90;;;15.80;99.90;;;;;;5096974;28;20577;-73
2022/09/03 07:38:55;;;;;;;9.60;7.40;;;15.80;99.90;;;;;;5078575;28;20656;-73
2022/09/03 07:41:22;;;;;;;9.53;7.63;;;15.80;99.90;;;;;;5078062;28;21136;-74
2022/09/03 07:43:49;;;;;;;8.17;7.30;;;15.80;99.90;;;;;;5061626;28;20583;-74
2022/09/03 07:46:21;;;;;;;8.73;7.93;;;15.80;99.90;;;;;;5097083;28;20551;-73
2022/09/03 07:48:49;;;;;;;7.50;6.63;;;15.80;99.90;;;;;;5077613;28;21020;-73
2022/09/03 07:51:19;;;;;;;7.87;7.23;;;15.90;99.90;;;;;;5096092;28;21110;-73
2022/09/03 07:53:47;;;;;;;7.80;7.20;;;15.80;99.90;;;;;;5096459;28;20551;-73
2022/09/03 07:56:14;;;;;;;11.07;8.83;;;15.80;99.90;;;;;;5096493;28;20570;-73
2022/09/03 07:58:41;;;;;;;9.07;8.10;;;15.70;99.90;;;;;;5096380;28;20625;-73
2022/09/03 08:01:11;;;;;;;7.87;7.17;;;15.70;99.90;;;;;;5095934;28;20956;-73
2022/09/03 08:03:41;;;;;;;8.33;7.63;;;15.90;99.90;;;;;;5096274;28;20605;-73
2022/09/03 08:06:08;;;;;;;8.40;7.40;;;16.00;99.90;;;;;;5096832;28;20597;-73
2022/09/03 08:08:36;;;;;;;9.13;8.00;;;16.10;99.90;;;;;;5095894;28;20644;-73
2022/09/03 08:11:09;;;;;;;9.17;8.27;;;16.10;99.90;;;;;;5095646;28;20583;-73
2022/09/03 08:13:41;;;;;;;11.17;8.20;;;16.10;99.90;;;;;;5095470;28;20617;-73
2022/09/03 08:16:08;;;;;;;9.40;8.43;;;16.20;99.90;;;;;;5095857;28;20621;-73
2022/09/03 08:18:38;;;;;;;10.87;8.80;;;16.20;99.90;;;;;;5095743;28;20596;-74
2022/09/03 08:21:12;;;;;;;9.47;8.50;;;16.30;99.90;;;;;;5077842;28;20627;-72
2022/09/03 08:23:41;;;;;;;9.40;8.00;;;16.40;99.90;;;;;;5095144;28;20629;-73
2022/09/03 08:26:08;;;;;;;8.50;7.90;;;16.50;99.90;;;;;;5096158;28;20685;-73
2022/09/03 08:28:36;;;;;;;8.03;7.33;;;16.60;99.90;;;;;;5077519;28;20617;-73
2022/09/03 08:31:20;;;;;;;8.00;7.27;;;16.80;99.90;;;;;;5095984;28;20612;-73
2022/09/03 08:33:50;;;;;;;6.70;6.30;;;16.90;99.90;;;;;;5095718;28;21177;-73
2022/09/03 08:36:30;;;;;;;8.13;7.10;;;17.30;99.90;;;;;;5095703;28;20617;-72
2022/09/03 08:39:02;;;;;;;8.27;7.47;;;17.30;99.90;;;;;;5094855;28;20689;-73
2022/09/03 08:41:50;;;;;;;8.10;7.40;;;17.50;99.90;;;;;;5076769;28;20670;-73
2022/09/03 08:44:19;;;;;;;7.00;6.40;;;17.50;99.90;;;;;;5095161;28;20613;-73
2022/09/03 08:46:59;;;;;;;9.30;6.90;;;17.50;99.90;;;;;;5096059;28;20589;-73
2022/09/03 08:49:36;;;;;;;7.87;7.30;;;17.50;99.90;;;;;;5094763;28;20637;-73
2022/09/03 08:52:20;;;;;;;7.50;6.90;;;17.30;99.90;;;;;;5095208;28;20611;-73
2022/09/03 08:54:49;;;;;;;8.53;7.80;;;17.40;99.90;;;;;;5095267;28;20583;-73
2022/09/03 08:57:19;;;;;;;8.37;7.57;;;17.60;99.90;;;;;;5094282;28;20651;-74
2022/09/03 08:59:51;;;;;;;9.53;7.53;;;17.70;99.90;;;;;;5077008;28;20940;-73
2022/09/03 09:02:26;;;;;;;8.70;8.00;;;17.80;99.90;;;;;;5094950;28;20639;-75
2022/09/03 09:04:55;;;;;;;8.10;7.43;;;18.10;99.90;;;;;;5076002;28;20613;-74
2022/09/03 09:07:45;;;;;;;7.23;6.63;;;18.50;99.90;;;;;;5094182;28;20946;-74
2022/09/03 09:10:21;;;;;;;7.57;7.00;;;18.20;99.90;;;;;;5094938;28;20569;-74
2022/09/03 09:13:09;;;;;;;7.40;6.87;;;18.50;99.90;;;;;;5094735;28;20941;-73
2022/09/03 09:15:48;;;;;;;6.73;6.23;;;18.40;99.90;;;;;;5094123;28;20613;-73
2022/09/03 09:18:21;;;;;;;7.60;7.00;;;18.60;99.90;;;;;;5094074;28;20661;-73
2022/09/03 09:20:53;;;;;;;8.30;7.60;;;18.50;99.90;;;;;;5093917;28;20617;-74
2022/09/03 09:23:30;;;;;;;7.27;6.67;;;18.40;99.90;;;;;;5094079;28;20663;-74
2022/09/03 09:26:00;;;;;;;6.30;5.83;;;18.10;99.90;;;;;;5094844;28;20565;-74
2022/09/03 09:28:37;;;;;;;7.30;6.70;;;18.30;99.90;;;;;;5094649;28;20573;-74
2022/09/03 09:31:07;;;;;;;6.90;6.30;;;18.30;99.90;;;;;;5094402;28;20574;-73
2022/09/03 09:33:34;;;;;;;6.00;5.60;;;18.60;99.90;;;;;;5093978;28;21327;-73
2022/09/03 09:36:12;;;;;;;5.90;5.50;;;18.60;99.90;;;;;;5094181;28;20670;-73
2022/09/03 09:38:39;;;;;;;7.40;6.73;;;18.70;99.90;;;;;;5075519;28;20653;-73
2022/09/03 09:41:09;;;;;;;10.43;7.00;;;18.80;99.90;;;;;;5095109;28;20573;-73
2022/09/03 09:43:37;;;;;;;8.03;5.87;;;18.90;99.90;;;;;;5094522;28;20600;-73
2022/09/03 09:46:25;;;;;;;5.33;4.90;;;19.00;99.90;;;;;;5094612;28;20618;-73
2022/09/03 09:48:55;;;;;;;7.17;6.50;;;18.90;99.90;;;;;;5094024;28;20641;-73
2022/09/03 09:51:29;;;;;;;9.10;8.30;;;18.80;99.90;;;;;;5094644;28;20570;-73
2022/09/03 09:54:13;;;;;;;7.37;6.30;;;18.60;99.90;;;;;;5094886;28;20569;-73
2022/09/03 09:56:43;;;;;;;6.63;6.23;;;18.70;99.90;;;;;;5094716;28;20640;-73
2022/09/03 09:59:11;;;;;;;8.13;7.37;;;18.80;99.90;;;;;;5094044;28;20662;-73
2022/09/03 10:01:45;;;;;;;7.47;6.87;;;18.90;99.90;;;;;;5076313;28;20680;-74
2022/09/03 10:04:24;;;;;;;7.50;6.90;;;19.00;99.90;;;;;;5094265;28;21201;-74
2022/09/03 10:06:58;;;;;;;8.13;7.53;;;19.20;99.90;;;;;;5094456;28;20573;-73
2022/09/03 10:09:29;;;;;;;9.07;8.30;;;19.20;99.90;;;;;;5094200;28;20578;-73
2022/09/03 10:12:18;;;;;;;9.17;8.47;;;19.10;99.90;;;;;;5094285;28;20621;-74
2022/09/03 10:15:12;;;;;;;9.57;8.80;;;19.20;99.90;;;;;;5093759;28;20621;-74
2022/09/03 10:17:46;;;;;;;9.23;8.47;;;19.50;99.90;;;;;;5093834;28;20661;-74
2022/09/03 10:20:32;;;;;;;7.33;6.63;;;19.90;99.90;;;;;;5097857;28;20976;-74
2022/09/03 10:23:04;;;;;;;6.33;5.93;;;20.10;99.90;;;;;;5097959;28;20877;-74
2022/09/03 10:25:39;;;;;;;6.20;5.60;;;20.10;99.90;;;;;;5098549;28;20634;-74
2022/09/03 10:28:09;;;;;;;6.20;5.80;;;20.60;99.90;;;;;;5098404;28;20942;-74
2022/09/03 10:31:06;;;;;;;7.80;6.33;;;21.00;99.90;;;;;;5098232;28;20562;-74
2022/09/03 10:33:48;;;;;;;6.53;6.03;;;20.80;99.90;;;;;;5098111;28;20584;-73
2022/09/03 10:36:58;;;;;;;6.67;6.07;;;20.50;99.90;;;;;;5079626;28;21232;-74
2022/09/03 10:40:02;;;;;;;8.43;5.40;;;20.40;99.90;;;;;;5017496;28;21092;-74
2022/09/03 10:42:44;;;;;;;6.67;6.20;;;20.30;99.90;;;;;;5097809;28;20593;-74
2022/09/03 10:45:18;;;;;;;7.07;6.47;;;20.20;99.90;;;;;;5097030;28;20613;-74
2022/09/03 10:47:54;;;;;;;8.10;7.30;;;20.50;99.90;;;;;;5097786;28;20637;-74
2022/09/03 10:50:27;;;;;;;7.97;7.37;;;20.50;99.90;;;;;;5097713;28;21148;-74
2022/09/03 10:53:10;;;;;;;5.73;5.23;;;20.20;99.90;;;;;;5097604;28;21138;-74
2022/09/03 10:55:51;;;;;;;5.80;5.40;;;20.10;99.90;;;;;;5096743;28;20592;-73
2022/09/03 10:58:42;;;;;;;6.03;5.70;;;20.20;99.90;;;;;;5097335;28;20625;-73
2022/09/03 11:01:54;;;;;;;7.80;7.10;;;20.40;99.90;;;;;;5097325;28;20619;-74
2022/09/03 11:04:26;;;;;;;7.37;6.67;;;20.30;99.90;;;;;;5096688;28;20651;-74
2022/09/03 11:06:58;;;;;;;6.50;6.07;;;20.20;99.90;;;;;;5096836;28;20633;-73
2022/09/03 11:09:28;;;;;;;6.57;6.07;;;20.30;99.90;;;;;;5078377;28;20613;-74
2022/09/03 11:12:25;;;;;;;6.30;5.90;;;20.40;99.90;;;;;;5097378;28;20592;-74
2022/09/03 11:15:10;;;;;;;7.43;6.73;;;20.40;99.90;;;;;;5097390;28;21250;-73
2022/09/03 11:17:46;;;;;;;9.10;8.30;;;21.00;99.90;;;;;;5097547;28;20656;-74
2022/09/03 11:20:25;;;;;;;7.63;6.80;;;21.10;99.90;;;;;;5097264;28;20580;-73
2022/09/03 11:23:00;;;;;;;12.57;6.47;;;21.10;99.90;;;;;;5097357;28;20569;-74
2022/09/03 11:25:35;;;;;;;6.50;5.90;;;21.80;99.90;;;;;;5097053;28;20778;-74
2022/09/03 11:28:10;;;;;;;6.20;5.80;;;22.80;99.90;;;;;;5096921;28;20621;-74
2022/09/03 11:31:04;;;;;;;5.00;4.70;;;23.50;99.90;;;;;;5096257;28;21187;-74
2022/09/03 11:33:32;;;;;;;6.03;5.43;;;24.00;99.90;;;;;;5096473;28;20549;-74
2022/09/03 11:36:00;;;;;;;6.47;5.97;;;22.60;99.90;;;;;;5096604;28;20589;-74
2022/09/03 11:38:30;;;;;;;6.13;5.73;;;21.80;99.90;;;;;;5078204;28;20660;-74
2022/09/03 11:41:25;;;;;;;6.80;6.20;;;21.40;99.90;;;;;;5096667;28;20614;-73
2022/09/03 11:43:53;;;;;;;6.37;5.90;;;21.40;99.90;;;;;;5096262;28;21164;-74
2022/09/03 11:46:23;;;;;;;6.33;5.90;;;22.10;99.90;;;;;;5097201;28;20585;-74
2022/09/03 11:48:55;;;;;;;7.43;6.60;;;22.60;99.90;;;;;;5096173;28;20657;-73
2022/09/03 11:51:31;;;;;;;6.20;5.60;;;22.50;99.90;;;;;;5096975;28;20554;-74
2022/09/03 11:54:25;;;;;;;5.90;5.50;;;22.10;99.90;;;;;;5078036;28;20624;-74
2022/09/03 11:57:10;;;;;;;5.43;5.03;;;21.80;99.90;;;;;;5092626;28;20683;-74
2022/09/03 11:59:37;;;;;;;5.57;5.17;;;22.40;99.90;;;;;;5095106;28;20680;-74
2022/09/03 12:02:28;;;;;;;5.60;5.27;;;22.80;99.90;;;;;;5096788;28;20612;-73
2022/09/03 12:05:08;;;;;;;4.17;3.97;;;23.10;99.90;;;;;;5086774;28;21013;-73
2022/09/03 12:07:40;;;;;;;5.40;5.10;;;22.80;99.90;;;;;;5096418;28;21136;-74
2022/09/03 12:10:25;;;;;;;4.67;4.37;;;22.20;99.90;;;;;;5096470;28;20585;-74
2022/09/03 12:13:01;;;;;;;6.00;4.63;;;22.70;99.90;;;;;;5097284;28;20569;-74
2022/09/03 12:15:53;;;;;;;7.63;4.87;;;22.80;99.90;;;;;;5095642;28;21201;-73
2022/09/03 12:18:29;;;;;;;4.80;4.40;;;23.00;99.90;;;;;;5095653;28;20656;-74
2022/09/03 12:20:59;;;;;;;9.93;5.00;;;22.40;99.90;;;;;;5095646;28;20690;-73
2022/09/03 12:23:34;;;;;;;5.00;4.70;;;22.40;99.90;;;;;;5095230;28;20592;-74
2022/09/03 12:26:07;;;;;;;7.70;4.73;;;22.50;99.90;;;;;;5095252;28;20734;-74
2022/09/03 12:28:37;;;;;;;5.07;4.77;;;23.20;99.90;;;;;;5095418;28;21119;-74
2022/09/03 12:31:22;;;;;;;6.30;5.80;;;24.20;99.90;;;;;;5095748;28;20929;-71
2022/09/03 12:33:57;;;;;;;5.60;5.20;;;24.60;99.90;;;;;;5077349;28;20625;-73
2022/09/03 12:36:25;;;;;;;4.87;4.47;;;23.60;99.90;;;;;;5094821;28;20621;-73
2022/09/03 12:38:52;;;;;;;5.47;5.17;;;24.10;99.90;;;;;;5076684;28;20664;-73
2022/09/03 12:41:28;;;;;;;5.07;4.77;;;24.90;99.90;;;;;;5094484;28;20600;-73
2022/09/03 12:43:57;;;;;;;5.90;5.50;;;24.70;99.90;;;;;;5095429;28;20577;-73
2022/09/03 12:46:26;;;;;;;7.57;6.80;;;24.70;99.90;;;;;;5094935;28;20616;-73
2022/09/03 12:49:06;;;;;;;5.50;5.20;;;24.70;99.90;;;;;;5094698;28;21227;-73
2022/09/03 12:51:40;;;;;;;5.57;5.27;;;25.50;99.90;;;;;;5094850;28;20613;-73
2022/09/03 12:54:14;;;;;;;5.80;5.40;;;25.80;99.90;;;;;;5077992;28;20608;-73
2022/09/03 12:56:54;;;;;;;5.60;5.30;;;26.10;99.90;;;;;;5094877;28;20613;-73
2022/09/03 12:59:23;;;;;;;6.43;5.93;;;25.30;99.90;;;;;;5095176;28;20983;-73
2022/09/03 13:01:54;;;;;;;6.27;5.73;;;24.60;99.90;;;;;;5095475;28;21131;-73
2022/09/03 13:04:31;;;;;;;8.13;5.67;;;24.20;99.90;;;;;;5096118;28;20638;-73
2022/09/03 13:07:10;;;;;;;5.87;5.47;;;23.50;99.90;;;;;;5095891;28;20718;-72
2022/09/03 13:09:40;;;;;;;4.93;4.70;;;23.30;99.90;;;;;;5095430;28;20604;-73
2022/09/03 13:12:20;;;;;;;6.20;5.47;;;23.30;99.90;;;;;;5095368;28;20570;-73
2022/09/03 13:14:47;;;;;;;6.47;5.87;;;23.00;99.90;;;;;;5095457;28;20643;-73
2022/09/03 13:17:23;;;;;;;5.40;5.00;;;23.20;99.90;;;;;;5095379;28;20640;-73
2022/09/03 13:20:32;;;;;;;6.00;5.50;;;23.80;99.90;;;;;;5095096;28;20636;-73
2022/09/03 13:23:07;;;;;;;6.07;5.70;;;24.00;99.90;;;;;;5024138;28;21294;-73
2022/09/03 13:25:37;;;;;;;6.33;5.93;;;23.30;99.90;;;;;;5098430;28;20977;-73